»·PEaware :: N100CC O42-KPVF

N100CC :: O42-KPVF

FLIGHT INFORMATION

Flight Status: Arrived
Operator: Privately registered:
United States
More flights under this callsign
Pilot: Dan A. (12711)
Aircraft: CESSNA 208 CARAVAN
(C208)
More flights by this aircraft type
Origin: O42 Woodlake
United States
Destination: KPVF Placerville
United States
More flights between these airports :: More routes between these airports
Route: FRA COGOL BAGBY
File this flight plan on PilotEdge
Remarks:
Altitude:
(Current/Filed)
8,000ft
Speed:
(Current/Filed)
150kts
Departed: 01-Jul-18 03:19 PM
Arrived: 01-Jul-18 04:19 PM
Distance/Time
Traveled:
158nm/1:00
Distance/Time
To Go:
Arrived

Flight Plot

Page will automatically refresh every two minutes.

Flight plan parsing failed; only flown route is shown


Map Options




Map Legend


Flown Route
Filed Route
Departure Airport
Arrival Airport
Navaid (VOR, NDB)
Fix

Horizontal Profiles

Position Reports

Time Latitude Longitude Heading Altitude Ground
Speed
01-Jul-18 14:16 36.398596 -119.112801 74 430ft 0kts
01-Jul-18 14:17 36.398596 -119.112801 74 430ft 0kts
01-Jul-18 14:18 36.398596 -119.112801 74 430ft 0kts
01-Jul-18 14:19 36.398596 -119.112801 74 430ft 0kts
01-Jul-18 14:20 36.398596 -119.112801 74 430ft 0kts
01-Jul-18 14:21 36.398596 -119.112801 74 430ft 0kts
01-Jul-18 14:22 36.398596 -119.112801 74 430ft 0kts
01-Jul-18 14:23 36.398596 -119.112801 74 430ft 0kts
01-Jul-18 14:24 36.398596 -119.112801 74 430ft 0kts
01-Jul-18 14:25 36.398596 -119.112801 74 430ft 0kts
01-Jul-18 14:26 36.398596 -119.112801 74 430ft 0kts
01-Jul-18 14:27 36.398596 -119.112801 74 430ft 0kts
01-Jul-18 14:28 36.398596 -119.112801 74 430ft 0kts
01-Jul-18 14:29 36.398596 -119.112801 74 430ft 0kts
01-Jul-18 14:30 36.398596 -119.112801 74 430ft 0kts
01-Jul-18 14:31 36.398596 -119.112801 74 430ft 0kts
01-Jul-18 14:32 36.398596 -119.112801 74 430ft 0kts
01-Jul-18 14:33 36.398596 -119.112801 74 430ft 0kts
01-Jul-18 14:34 36.398596 -119.112801 74 430ft 0kts
01-Jul-18 14:35 36.398596 -119.112801 74 430ft 0kts
01-Jul-18 14:36 36.398596 -119.112801 74 430ft 0kts
01-Jul-18 14:37 36.398596 -119.112801 74 430ft 0kts
01-Jul-18 14:38 36.398596 -119.112801 74 430ft 0kts
01-Jul-18 14:39 36.398596 -119.112801 74 430ft 0kts
01-Jul-18 14:40 36.398596 -119.112801 74 430ft 0kts
01-Jul-18 14:41 36.398596 -119.112801 74 430ft 0kts
01-Jul-18 14:42 36.398596 -119.112801 74 430ft 0kts
01-Jul-18 14:43 36.398596 -119.112801 74 430ft 0kts
01-Jul-18 14:44 36.398596 -119.112801 74 430ft 0kts
01-Jul-18 14:45 36.398596 -119.112801 74 430ft 0kts
01-Jul-18 14:46 36.398596 -119.112801 74 430ft 0kts
01-Jul-18 14:47 36.398596 -119.112801 74 430ft 0kts
01-Jul-18 14:48 36.398596 -119.112801 74 430ft 0kts
01-Jul-18 14:49 36.398596 -119.112801 74 430ft 0kts
01-Jul-18 14:50 36.398596 -119.112801 74 430ft 0kts
01-Jul-18 14:51 36.398596 -119.112801 74 430ft 0kts
01-Jul-18 14:52 36.398596 -119.112801 74 430ft 0kts
01-Jul-18 14:53 36.398596 -119.112801 74 430ft 0kts
01-Jul-18 14:54 36.398596 -119.112801 74 430ft 0kts
01-Jul-18 14:55 36.398596 -119.112801 74 430ft 0kts
01-Jul-18 14:56 36.398596 -119.112801 74 430ft 0kts
01-Jul-18 14:57 36.398596 -119.112801 74 430ft 0kts
01-Jul-18 14:58 36.398596 -119.112801 74 430ft 0kts
01-Jul-18 14:59 36.398596 -119.112801 74 430ft 0kts
01-Jul-18 15:00 36.398596 -119.112801 74 430ft 0kts
01-Jul-18 15:01 36.398596 -119.112801 74 430ft 0kts
01-Jul-18 15:02 36.398596 -119.112801 74 430ft 0kts
01-Jul-18 15:03 36.398596 -119.112801 74 430ft 0kts
01-Jul-18 15:04 36.398596 -119.112801 74 430ft 0kts
01-Jul-18 15:05 36.398596 -119.112801 74 430ft 0kts
01-Jul-18 15:06 36.398596 -119.112801 74 430ft 0kts
01-Jul-18 15:07 36.398596 -119.112801 74 430ft 0kts
01-Jul-18 15:08 36.398596 -119.112801 74 430ft 0kts
01-Jul-18 15:09 36.398596 -119.112801 74 430ft 0kts
01-Jul-18 15:10 36.398596 -119.112801 74 430ft 0kts
01-Jul-18 15:11 36.398596 -119.112801 74 430ft 0kts
01-Jul-18 15:12 36.398596 -119.112801 74 430ft 0kts
01-Jul-18 15:13 36.398596 -119.112801 74 430ft 0kts
01-Jul-18 15:14 36.398597 -119.112800 74 430ft 0kts
01-Jul-18 15:15 36.398597 -119.112798 74 430ft 0kts
01-Jul-18 15:16 36.398597 -119.112797 74 430ft 0kts
01-Jul-18 15:17 36.398597 -119.112796 74 430ft 0kts
01-Jul-18 15:18 36.398597 -119.112795 74 430ft 0kts
01-Jul-18 15:19 36.399028 -119.103424 81 570ft 102kts
01-Jul-18 15:20 36.426635 -119.095048 329 1651ft 112kts
01-Jul-18 15:22 36.449140 -119.127287 310 2794ft 137kts
01-Jul-18 15:23 36.476343 -119.162147 323 4077ft 143kts
01-Jul-18 15:24 36.510823 -119.188564 329 5373ft 145kts
01-Jul-18 15:25 36.546478 -119.213071 329 6653ft 147kts
01-Jul-18 15:26 36.582407 -119.237520 328 7904ft 149kts
01-Jul-18 15:27 36.621445 -119.264144 328 8479ft 174kts
01-Jul-18 15:28 36.665197 -119.293939 328 8495ft 180kts
01-Jul-18 15:29 36.709100 -119.324094 328 8500ft 180kts
01-Jul-18 15:30 36.753216 -119.354228 328 8499ft 180kts
01-Jul-18 15:31 36.797264 -119.384273 328 8495ft 176kts
01-Jul-18 15:32 36.840161 -119.413635 328 8500ft 175kts
01-Jul-18 15:33 36.882889 -119.442895 328 8500ft 175kts
01-Jul-18 15:34 36.925661 -119.472226 328 8500ft 175kts
01-Jul-18 15:35 36.968476 -119.501667 328 8500ft 175kts
01-Jul-18 15:36 37.011159 -119.531060 328 8505ft 175kts
01-Jul-18 15:37 37.053887 -119.560525 328 8510ft 174kts
01-Jul-18 15:38 37.096268 -119.590013 324 8537ft 172kts
01-Jul-18 15:39 37.133355 -119.627021 316 8558ft 170kts
01-Jul-18 15:40 37.169440 -119.666068 315 8555ft 171kts
01-Jul-18 15:41 37.205267 -119.705061 315 8557ft 170kts
01-Jul-18 15:42 37.241247 -119.744286 315 8556ft 170kts
01-Jul-18 15:43 37.277009 -119.783334 315 8577ft 169kts
01-Jul-18 15:44 37.312658 -119.822277 315 8584ft 170kts
01-Jul-18 15:45 37.348402 -119.861391 315 8585ft 169kts
01-Jul-18 15:46 37.384267 -119.900694 315 8498ft 170kts
01-Jul-18 15:47 37.419866 -119.939757 315 8496ft 170kts
01-Jul-18 15:48 37.455488 -119.978894 315 8498ft 167kts
01-Jul-18 15:49 37.490852 -120.017835 316 8424ft 173kts
01-Jul-18 15:50 37.527044 -120.057680 316 8419ft 172kts
01-Jul-18 15:51 37.562849 -120.097180 316 8426ft 171kts
01-Jul-18 15:52 37.598665 -120.136748 316 8431ft 171kts
01-Jul-18 15:53 37.639069 -120.168307 335 8416ft 173kts
01-Jul-18 15:54 37.683589 -120.192333 336 8413ft 173kts
01-Jul-18 15:54 37.720619 -120.211932 336 8423ft 173kts
01-Jul-18 15:55 37.765249 -120.235521 336 8431ft 173kts
01-Jul-18 15:57 37.817159 -120.262986 336 8413ft 173kts
01-Jul-18 15:58 37.861631 -120.286539 336 8413ft 173kts
01-Jul-18 15:59 37.906235 -120.310197 336 8413ft 173kts
01-Jul-18 16:00 37.950743 -120.333836 336 8413ft 173kts
01-Jul-18 16:00 37.987706 -120.353492 336 8422ft 173kts
01-Jul-18 16:01 38.032241 -120.377202 336 8413ft 173kts
01-Jul-18 16:03 38.120654 -120.424364 336 8413ft 173kts
01-Jul-18 16:04 38.165183 -120.448165 336 8468ft 172kts
01-Jul-18 16:05 38.212567 -120.473543 337 7557ft 190kts
01-Jul-18 16:06 38.261352 -120.499682 337 6636ft 189kts
01-Jul-18 16:07 38.308202 -120.524828 337 6467ft 173kts
01-Jul-18 16:08 38.351666 -120.548201 338 6532ft 168kts
01-Jul-18 16:09 38.395256 -120.571649 338 6540ft 171kts
01-Jul-18 16:10 38.439342 -120.595407 338 6542ft 171kts
01-Jul-18 16:11 38.483355 -120.619158 338 6539ft 172kts
01-Jul-18 16:12 38.526694 -120.613537 34 6462ft 170kts
01-Jul-18 16:13 38.566767 -120.584817 25 5550ft 164kts
01-Jul-18 16:14 38.607820 -120.567885 6 4740ft 154kts
01-Jul-18 16:15 38.643842 -120.581043 296 4645ft 137kts
01-Jul-18 16:16 38.661810 -120.628173 294 4270ft 150kts
01-Jul-18 16:17 38.685054 -120.671444 297 3813ft 133kts
01-Jul-18 16:18 38.695434 -120.712772 273 2884ft 116kts
01-Jul-18 16:19 38.700315 -120.735378 18 2564ft 19kts

Navigation Log

Ident Type
Flight plan parsing failed, navigation log unavailable